Time;durP1;ratioP1;P1;durP2;ratioP2;P2;SDS_P1;SDS_P2;PMS_P1;PMS_P2;Temp;Humidity;BMP_temperature;BMP_pressure;BME280_temperature;BME280_humidity;BME280_pressure;Samples;Min_cycle;Max_cycle;Signal;HPM_P1;HPM_P2
2022/09/29 00:01:57;;;;;;;6.60;6.20;;;;;;;;;;5034528;28;20508;-78
2022/09/29 00:04:22;;;;;;;7.72;6.65;;;;;;;;;;5031012;28;20505;-79
2022/09/29 00:06:48;;;;;;;8.80;6.47;;;;;;;;;;5030160;28;20059;-79
2022/09/29 00:09:14;;;;;;;6.10;5.68;;;;;;;;;;5030017;28;20033;-78
2022/09/29 00:11:40;;;;;;;6.25;5.80;;;;;;;;;;5012597;28;20075;-77
2022/09/29 00:14:06;;;;;;;6.68;6.18;;;;;;;;;;5032346;28;20107;-77
2022/09/29 00:16:32;;;;;;;6.97;6.38;;;;;;;;;;5030518;28;20123;-78
2022/09/29 00:18:58;;;;;;;6.68;5.90;;;;;;;;;;5029810;28;20500;-78
2022/09/29 00:21:24;;;;;;;6.93;6.38;;;;;;;;;;5028110;28;20056;-77
2022/09/29 00:23:50;;;;;;;7.15;6.55;;;;;;;;;;4995261;28;20045;-79
2022/09/29 00:26:20;;;;;;;9.27;6.68;;;;;;;;;;5029266;28;20608;-79
2022/09/29 00:28:51;;;;;;;8.07;6.50;;;;;;;;;;5011933;28;20037;-78
2022/09/29 00:31:17;;;;;;;7.72;6.97;;;;;;;;;;5029040;28;20041;-80
2022/09/29 00:33:44;;;;;;;7.35;6.00;;;;;;;;;;5010519;28;20421;-80
2022/09/29 00:36:13;;;;;;;7.32;6.72;;;;;;;;;;5011810;28;20339;-80
2022/09/29 00:38:40;;;;;;;7.97;7.18;;;;;;;;;;5028797;28;20149;-79
2022/09/29 00:41:07;;;;;;;7.72;7.13;;;;;;;;;;4995168;28;20057;-80
2022/09/29 00:43:52;;;;;;;7.85;7.13;;;;;;;;;;5011451;28;20505;-79
2022/09/29 00:46:19;;;;;;;11.05;7.43;;;;;;;;;;5029174;28;20042;-80
2022/09/29 00:48:45;;;;;;;8.10;7.47;;;;;;;;;;5012246;28;20603;-80
2022/09/29 00:51:12;;;;;;;8.55;7.63;;;;;;;;;;5029180;28;20124;-79
2022/09/29 00:53:38;;;;;;;7.78;7.18;;;;;;;;;;5010927;28;20049;-78
2022/09/29 00:56:05;;;;;;;8.32;7.40;;;;;;;;;;5029108;28;20038;-79
2022/09/29 00:58:53;;;;;;;8.15;7.20;;;;;;;;;;4994639;28;20056;-80
2022/09/29 01:01:20;;;;;;;8.77;8.07;;;;;;;;;;5028512;28;20208;-78
2022/09/29 01:03:46;;;;;;;9.43;7.82;;;;;;;;;;5010896;28;20072;-79
2022/09/29 01:06:13;;;;;;;8.77;7.95;;;;;;;;;;5011334;28;20115;-79
2022/09/29 01:08:51;;;;;;;9.13;7.07;;;;;;;;;;5028634;28;20053;-78
2022/09/29 01:11:17;;;;;;;7.95;6.30;;;;;;;;;;5012084;28;20467;-79
2022/09/29 01:13:43;;;;;;;7.55;6.88;;;;;;;;;;5011810;28;20064;-79
2022/09/29 01:16:09;;;;;;;8.80;7.00;;;;;;;;;;5029394;28;20033;-80
2022/09/29 01:18:35;;;;;;;7.82;7.13;;;;;;;;;;5011039;28;20041;-79
2022/09/29 01:21:04;;;;;;;7.57;6.97;;;;;;;;;;5011151;28;20052;-78
2022/09/29 01:23:41;;;;;;;7.22;6.63;;;;;;;;;;5028366;28;20509;-77
2022/09/29 01:26:26;;;;;;;14.07;7.60;;;;;;;;;;5011173;28;20038;-79
2022/09/29 01:28:55;;;;;;;8.25;7.40;;;;;;;;;;5028326;28;20045;-79
2022/09/29 01:31:30;;;;;;;8.70;7.45;;;;;;;;;;5010756;28;20037;-79
2022/09/29 01:34:11;;;;;;;10.98;7.72;;;;;;;;;;5028491;28;20537;-80
2022/09/29 01:36:36;;;;;;;;;;;;;;;;;;5028963;28;20037;-79
2022/09/29 01:39:15;;;;;;;9.80;7.28;;;;;;;;;;5010719;28;20292;-79
2022/09/29 01:41:41;;;;;;;8.02;7.15;;;;;;;;;;5010515;28;20144;-78
2022/09/29 01:44:12;;;;;;;11.52;7.75;;;;;;;;;;5028682;28;20133;-78
2022/09/29 01:46:40;;;;;;;10.98;7.85;;;;;;;;;;5030074;28;20160;-78
2022/09/29 01:49:06;;;;;;;8.93;8.05;;;;;;;;;;5014699;28;20097;-78
2022/09/29 01:51:37;;;;;;;11.13;7.30;;;;;;;;;;5014525;28;20041;-79
2022/09/29 01:54:04;;;;;;;9.18;7.82;;;;;;;;;;5031007;28;20045;-78
2022/09/29 01:56:35;;;;;;;9.00;8.10;;;;;;;;;;5032154;28;20050;-79
2022/09/29 01:59:24;;;;;;;7.95;7.25;;;;;;;;;;5032225;28;20049;-78
2022/09/29 02:01:50;;;;;;;9.10;7.80;;;;;;;;;;4975835;28;20051;-78
2022/09/29 02:04:37;;;;;;;8.50;7.40;;;;;;;;;;4991553;28;20058;-79
2022/09/29 02:07:05;;;;;;;8.00;7.32;;;;;;;;;;4992596;28;20042;-79
2022/09/29 02:09:34;;;;;;;10.15;7.88;;;;;;;;;;4994734;28;20046;-82
2022/09/29 02:12:00;;;;;;;8.85;7.90;;;;;;;;;;5010541;28;20325;-80
2022/09/29 02:14:27;;;;;;;8.68;7.97;;;;;;;;;;4993506;28;20050;-81
2022/09/29 02:16:57;;;;;;;8.23;7.53;;;;;;;;;;4995151;28;20038;-82
2022/09/29 02:19:24;;;;;;;9.48;8.25;;;;;;;;;;4992252;28;20049;-81
2022/09/29 02:21:54;;;;;;;8.45;7.72;;;;;;;;;;5009810;28;20050;-81
2022/09/29 02:24:20;;;;;;;8.90;8.25;;;;;;;;;;4994145;28;20449;-82
2022/09/29 02:26:46;;;;;;;8.88;8.07;;;;;;;;;;4993210;28;20046;-82
2022/09/29 02:29:12;;;;;;;9.00;8.18;;;;;;;;;;4995028;28;20049;-82
2022/09/29 02:31:38;;;;;;;8.90;8.10;;;;;;;;;;4993272;28;20031;-82
2022/09/29 02:34:05;;;;;;;7.90;7.20;;;;;;;;;;4996051;28;20053;-81
2022/09/29 02:36:38;;;;;;;8.73;7.35;;;;;;;;;;4998270;28;20042;-82
2022/09/29 02:39:06;;;;;;;8.95;8.15;;;;;;;;;;4994541;28;20073;-81
2022/09/29 02:41:50;;;;;;;13.40;8.10;;;;;;;;;;4991221;28;20102;-81
2022/09/29 02:44:38;;;;;;;8.95;8.05;;;;;;;;;;4992189;28;20046;-80
2022/09/29 02:47:07;;;;;;;8.60;7.70;;;;;;;;;;4992289;28;20050;-81
2022/09/29 02:49:41;;;;;;;9.43;8.48;;;;;;;;;;4991949;28;20129;-80
2022/09/29 02:52:06;;;;;;;10.20;8.10;;;;;;;;;;4974806;28;20141;-80
2022/09/29 02:54:36;;;;;;;9.45;8.63;;;;;;;;;;4991712;28;20125;-80
2022/09/29 02:57:10;;;;;;;8.38;7.75;;;;;;;;;;4993883;28;20058;-82
2022/09/29 02:59:41;;;;;;;9.98;9.10;;;;;;;;;;4967943;28;20514;-83
2022/09/29 03:02:07;;;;;;;8.57;7.97;;;;;;;;;;5017916;28;20064;-82
2022/09/29 03:04:33;;;;;;;9.85;8.93;;;;;;;;;;5013386;28;20046;-80
2022/09/29 03:06:59;;;;;;;9.25;8.52;;;;;;;;;;5023506;28;20060;-78
2022/09/29 03:09:25;;;;;;;9.57;8.77;;;;;;;;;;5025370;28;20041;-82
2022/09/29 03:11:51;;;;;;;11.35;10.20;;;;;;;;;;5012046;28;20418;-78
2022/09/29 03:14:17;;;;;;;11.40;9.55;;;;;;;;;;5011874;28;20080;-80
2022/09/29 03:16:43;;;;;;;10.63;9.55;;;;;;;;;;5012049;28;20406;-80
2022/09/29 03:19:10;;;;;;;11.30;10.07;;;;;;;;;;5012170;28;20145;-80
2022/09/29 03:21:35;;;;;;;11.48;10.13;;;;;;;;;;5009995;28;20062;-79
2022/09/29 03:24:02;;;;;;;12.30;11.18;;;;;;;;;;5011508;28;20049;-78
2022/09/29 03:26:29;;;;;;;12.52;11.02;;;;;;;;;;5028228;28;20041;-78
2022/09/29 03:28:54;;;;;;;14.43;11.38;;;;;;;;;;5016628;28;20147;-79
2022/09/29 03:31:20;;;;;;;13.70;11.45;;;;;;;;;;5010771;28;20486;-79
2022/09/29 03:33:46;;;;;;;12.35;11.35;;;;;;;;;;5010876;28;20152;-78
2022/09/29 03:36:12;;;;;;;11.55;10.52;;;;;;;;;;5020835;28;20037;-79
2022/09/29 03:38:38;;;;;;;12.32;11.10;;;;;;;;;;5031530;28;20042;-80
2022/09/29 03:41:04;;;;;;;14.30;12.02;;;;;;;;;;5036112;28;20103;-81
2022/09/29 03:43:30;;;;;;;15.07;12.43;;;;;;;;;;5044219;28;20041;-80
2022/09/29 03:45:56;;;;;;;13.68;12.27;;;;;;;;;;5043609;28;20041;-81
2022/09/29 03:48:22;;;;;;;14.32;12.07;;;;;;;;;;5034781;28;20033;-82
2022/09/29 03:50:48;;;;;;;15.68;12.77;;;;;;;;;;5028998;28;20048;-82
2022/09/29 03:53:14;;;;;;;14.77;11.23;;;;;;;;;;5016406;28;20596;-81
2022/09/29 03:55:40;;;;;;;13.77;12.48;;;;;;;;;;5011311;28;20219;-82
2022/09/29 03:58:06;;;;;;;15.82;12.13;;;;;;;;;;5011857;28;20529;-82
2022/09/29 04:00:32;;;;;;;26.30;11.93;;;;;;;;;;5026723;28;20105;-82
2022/09/29 04:02:58;;;;;;;14.02;12.52;;;;;;;;;;5013174;28;20045;-83
2022/09/29 04:05:24;;;;;;;12.35;11.15;;;;;;;;;;5011762;28;20038;-80
2022/09/29 04:07:50;;;;;;;13.52;11.43;;;;;;;;;;5019670;28;20424;-80
2022/09/29 04:10:16;;;;;;;16.63;12.35;;;;;;;;;;4996896;28;20050;-81
2022/09/29 04:12:42;;;;;;;11.02;9.98;;;;;;;;;;5013061;28;20052;-82
2022/09/29 04:15:08;;;;;;;11.57;10.48;;;;;;;;;;5012014;28;20199;-81
2022/09/29 04:17:34;;;;;;;11.05;9.88;;;;;;;;;;5011330;28;20046;-82
2022/09/29 04:20:00;;;;;;;10.02;9.23;;;;;;;;;;5010848;28;20061;-82
2022/09/29 04:22:26;;;;;;;10.40;9.38;;;;;;;;;;5013947;28;20148;-82
2022/09/29 04:24:52;;;;;;;11.35;9.75;;;;;;;;;;5010955;28;20046;-81
2022/09/29 04:27:18;;;;;;;11.20;10.20;;;;;;;;;;5008813;28;20425;-81
2022/09/29 04:29:44;;;;;;;10.18;8.88;;;;;;;;;;5013755;28;20132;-83
2022/09/29 04:32:10;;;;;;;8.98;8.30;;;;;;;;;;5013675;28;20121;-83
2022/09/29 04:34:36;;;;;;;8.68;8.05;;;;;;;;;;5013710;28;20113;-82
2022/09/29 04:37:02;;;;;;;8.38;7.60;;;;;;;;;;5012162;28;20041;-82
2022/09/29 04:39:31;;;;;;;8.13;7.45;;;;;;;;;;5015265;28;20045;-83
2022/09/29 04:41:58;;;;;;;7.72;7.13;;;;;;;;;;5013923;28;20147;-80
2022/09/29 04:44:24;;;;;;;7.80;6.65;;;;;;;;;;5009864;28;20164;-82
2022/09/29 04:46:50;;;;;;;7.22;6.63;;;;;;;;;;5007971;28;20479;-80
2022/09/29 04:49:19;;;;;;;7.72;6.53;;;;;;;;;;5009697;28;20049;-82
2022/09/29 04:51:45;;;;;;;7.38;6.78;;;;;;;;;;5009029;28;20517;-81
2022/09/29 04:54:11;;;;;;;7.25;6.57;;;;;;;;;;5008936;28;20172;-81
2022/09/29 04:56:37;;;;;;;6.90;6.28;;;;;;;;;;5009738;28;20042;-81
2022/09/29 04:59:03;;;;;;;7.45;6.95;;;;;;;;;;5010659;28;20052;-81
2022/09/29 05:01:29;;;;;;;7.47;6.88;;;;;;;;;;5025820;28;20046;-81
2022/09/29 05:03:55;;;;;;;8.10;7.50;;;;;;;;;;5029557;28;20041;-80
2022/09/29 05:06:21;;;;;;;8.10;7.30;;;;;;;;;;5029641;28;20045;-79
2022/09/29 05:08:47;;;;;;;8.13;7.43;;;;;;;;;;5012207;28;20045;-81
2022/09/29 05:11:12;;;;;;;8.02;7.35;;;;;;;;;;5029653;28;20449;-82
2022/09/29 05:13:38;;;;;;;10.15;7.38;;;;;;;;;;5027991;28;20116;-81
2022/09/29 05:16:04;;;;;;;6.85;6.35;;;;;;;;;;5029548;28;20072;-81
2022/09/29 05:18:30;;;;;;;6.30;5.80;;;;;;;;;;5028940;28;20413;-80
2022/09/29 05:21:00;;;;;;;6.47;5.75;;;;;;;;;;5014013;28;20099;-82
2022/09/29 05:23:27;;;;;;;6.35;5.75;;;;;;;;;;5038233;28;20045;-81
2022/09/29 05:25:53;;;;;;;7.10;6.60;;;;;;;;;;5019643;28;20385;-80
2022/09/29 05:28:19;;;;;;;6.28;5.78;;;;;;;;;;5038605;28;20045;-82
2022/09/29 05:30:44;;;;;;;6.80;6.20;;;;;;;;;;5037207;28;20111;-82
2022/09/29 05:33:10;;;;;;;6.72;6.22;;;;;;;;;;5033231;28;20120;-82
2022/09/29 05:35:36;;;;;;;6.28;5.65;;;;;;;;;;5032876;28;20042;-81
2022/09/29 05:38:02;;;;;;;8.40;7.65;;;;;;;;;;5031310;28;20120;-81
2022/09/29 05:40:28;;;;;;;6.95;6.35;;;;;;;;;;5032557;28;20049;-81
2022/09/29 05:42:54;;;;;;;8.00;7.20;;;;;;;;;;5032145;28;20049;-81
2022/09/29 05:45:20;;;;;;;8.30;7.55;;;;;;;;;;5032502;28;20042;-81
2022/09/29 05:47:46;;;;;;;8.90;8.02;;;;;;;;;;5046280;28;20056;-84
2022/09/29 05:50:12;;;;;;;10.15;8.77;;;;;;;;;;5052473;28;20052;-86
2022/09/29 05:52:38;;;;;;;9.63;8.73;;;;;;;;;;5036822;28;20045;-85
2022/09/29 05:55:04;;;;;;;11.90;8.82;;;;;;;;;;5054116;28;20627;-85
2022/09/29 05:57:30;;;;;;;9.45;8.65;;;;;;;;;;5047768;28;20099;-85
2022/09/29 05:59:56;;;;;;;9.50;8.23;;;;;;;;;;5046807;28;20045;-87
2022/09/29 06:02:22;;;;;;;8.00;7.22;;;;;;;;;;5038777;28;20061;-85
2022/09/29 06:04:48;;;;;;;8.18;7.47;;;;;;;;;;5039262;28;20025;-87
2022/09/29 06:07:13;;;;;;;10.07;9.13;;;;;;;;;;5262560;22;20051;-89
2022/09/29 06:09:39;;;;;;;9.80;8.90;;;;;;;;;;5098842;28;20055;-87
2022/09/29 06:12:05;;;;;;;13.63;8.48;;;;;;;;;;5096750;28;20037;-86
2022/09/29 06:14:31;;;;;;;9.20;8.25;;;;;;;;;;5090503;28;20101;-84
2022/09/29 06:16:57;;;;;;;27.33;19.20;;;;;;;;;;5071401;28;20128;-78
2022/09/29 06:19:23;;;;;;;10.27;9.10;;;;;;;;;;5069679;28;20045;-78
2022/09/29 06:21:49;;;;;;;9.48;8.35;;;;;;;;;;5067472;28;20476;-80
2022/09/29 06:24:15;;;;;;;8.20;7.55;;;;;;;;;;5068804;28;20118;-77
2022/09/29 06:26:41;;;;;;;10.75;9.35;;;;;;;;;;5080195;28;20054;-75
2022/09/29 06:29:08;;;;;;;9.82;8.93;;;;;;;;;;5088844;28;20414;-80
2022/09/29 06:31:34;;;;;;;9.55;8.57;;;;;;;;;;5088875;28;20047;-80
2022/09/29 06:34:01;;;;;;;9.20;8.48;;;;;;;;;;5070593;28;20413;-80
2022/09/29 06:39:13;;;;;;;9.15;8.30;;;;;;;;;;5066656;28;20049;-75
2022/09/29 06:41:40;;;;;;;8.90;7.90;;;;;;;;;;5067292;28;20520;-78
2022/09/29 06:44:07;;;;;;;9.70;8.80;;;;;;;;;;5071879;28;20044;-78
2022/09/29 06:46:34;;;;;;;9.35;8.43;;;;;;;;;;5064168;28;20102;-78
2022/09/29 06:49:00;;;;;;;9.40;8.43;;;;;;;;;;5068707;28;20514;-77
2022/09/29 06:51:26;;;;;;;9.73;8.82;;;;;;;;;;5068707;28;20106;-76
2022/09/29 06:53:52;;;;;;;12.73;9.40;;;;;;;;;;5068980;28;20052;-77
2022/09/29 06:56:18;;;;;;;10.27;9.10;;;;;;;;;;5070566;28;20534;-77
2022/09/29 06:58:45;;;;;;;9.60;8.75;;;;;;;;;;5070332;28;20068;-76
2022/09/29 07:01:11;;;;;;;10.38;8.90;;;;;;;;;;5037437;28;20053;-76
2022/09/29 07:03:37;;;;;;;8.50;7.70;;;;;;;;;;5050411;28;20048;-77
2022/09/29 07:06:03;;;;;;;8.00;6.95;;;;;;;;;;5065904;28;20048;-77
2022/09/29 07:08:30;;;;;;;10.57;8.07;;;;;;;;;;5050254;28;20049;-77
2022/09/29 07:10:56;;;;;;;7.43;6.82;;;;;;;;;;5050320;28;20037;-77
2022/09/29 07:13:22;;;;;;;8.60;7.80;;;;;;;;;;5050518;28;20072;-76
2022/09/29 07:15:48;;;;;;;8.45;7.25;;;;;;;;;;5050265;28;20085;-76
2022/09/29 07:18:14;;;;;;;7.88;7.18;;;;;;;;;;5053716;28;20071;-76
2022/09/29 07:20:40;;;;;;;8.32;7.05;;;;;;;;;;5060413;28;20053;-77
2022/09/29 07:23:07;;;;;;;7.88;7.18;;;;;;;;;;5064720;28;20083;-76
2022/09/29 07:25:33;;;;;;;8.15;7.50;;;;;;;;;;5061361;28;20227;-78
2022/09/29 07:27:59;;;;;;;10.95;7.80;;;;;;;;;;5051808;28;20033;-77
2022/09/29 07:30:26;;;;;;;9.13;8.35;;;;;;;;;;5048435;28;20433;-77
2022/09/29 07:32:54;;;;;;;10.30;9.43;;;;;;;;;;5050127;28;20065;-76
2022/09/29 07:35:20;;;;;;;12.45;9.63;;;;;;;;;;5050142;28;20128;-76
2022/09/29 07:37:53;;;;;;;9.55;8.07;;;;;;;;;;5049733;28;20504;-76
2022/09/29 07:40:21;;;;;;;10.77;9.52;;;;;;;;;;5049694;28;20049;-77
2022/09/29 07:42:47;;;;;;;10.40;9.50;;;;;;;;;;5064569;28;20041;-77
2022/09/29 07:45:12;;;;;;;9.60;8.70;;;;;;;;;;5048162;28;20044;-77
2022/09/29 07:47:38;;;;;;;11.07;9.98;;;;;;;;;;5048646;28;20111;-77
2022/09/29 07:50:04;;;;;;;10.88;9.80;;;;;;;;;;5049634;28;20471;-76
2022/09/29 07:52:30;;;;;;;11.30;10.20;;;;;;;;;;5049854;28;20041;-76
2022/09/29 07:54:56;;;;;;;11.98;11.00;;;;;;;;;;5049450;28;20037;-77
2022/09/29 07:57:22;;;;;;;11.40;10.38;;;;;;;;;;5068536;28;20068;-77
2022/09/29 07:59:48;;;;;;;10.85;9.95;;;;;;;;;;5053127;28;20037;-76
2022/09/29 08:02:14;;;;;;;11.18;10.18;;;;;;;;;;5049656;28;20144;-77
2022/09/29 08:04:42;;;;;;;10.27;9.40;;;;;;;;;;5049046;28;20033;-77
2022/09/29 08:07:08;;;;;;;11.55;9.38;;;;;;;;;;5048015;28;20091;-77
2022/09/29 08:09:34;;;;;;;10.57;9.57;;;;;;;;;;5048025;28;20504;-77
2022/09/29 08:12:00;;;;;;;14.82;9.57;;;;;;;;;;5064052;28;20099;-77
2022/09/29 08:14:26;;;;;;;10.95;9.95;;;;;;;;;;5047130;28;20041;-77
2022/09/29 08:16:52;;;;;;;12.07;9.13;;;;;;;;;;5047637;28;20037;-77
2022/09/29 08:19:19;;;;;;;13.60;10.93;;;;;;;;;;5047671;28;20428;-77
2022/09/29 08:21:48;;;;;;;20.05;10.00;;;;;;;;;;5048808;28;20045;-77
2022/09/29 08:24:15;;;;;;;10.23;9.18;;;;;;;;;;5047643;28;20076;-77
2022/09/29 08:26:41;;;;;;;15.60;9.30;;;;;;;;;;5047633;28;20135;-78
2022/09/29 08:29:07;;;;;;;11.98;10.52;;;;;;;;;;5064119;28;20124;-77
2022/09/29 08:31:33;;;;;;;11.23;10.13;;;;;;;;;;5047943;28;20128;-77
2022/09/29 08:34:00;;;;;;;11.52;10.40;;;;;;;;;;5047076;28;20056;-77
2022/09/29 08:36:25;;;;;;;11.45;10.35;;;;;;;;;;5048611;28;20076;-77
2022/09/29 08:38:52;;;;;;;11.95;9.90;;;;;;;;;;5048271;28;20037;-76
2022/09/29 08:41:27;;;;;;;9.77;8.95;;;;;;;;;;5047373;28;20071;-75
2022/09/29 08:43:54;;;;;;;12.93;11.70;;;;;;;;;;5047892;28;20051;-77
2022/09/29 08:46:25;;;;;;;11.48;10.38;;;;;;;;;;5048804;28;20124;-77
2022/09/29 08:48:51;;;;;;;11.75;10.65;;;;;;;;;;5048283;28;20040;-77
2022/09/29 08:51:20;;;;;;;11.13;9.95;;;;;;;;;;5048732;28;20127;-77
2022/09/29 08:53:46;;;;;;;13.85;10.50;;;;;;;;;;5047230;28;20131;-77
2022/09/29 08:56:13;;;;;;;17.98;11.38;;;;;;;;;;5047905;28;20151;-78
2022/09/29 08:58:40;;;;;;;14.20;11.25;;;;;;;;;;5030346;28;20048;-78
2022/09/29 09:01:08;;;;;;;14.82;12.18;;;;;;;;;;5048186;28;20590;-78
2022/09/29 09:03:40;;;;;;;13.40;9.93;;;;;;;;;;5048745;28;20094;-78
2022/09/29 09:06:09;;;;;;;12.98;10.75;;;;;;;;;;5048377;28;20095;-77
2022/09/29 09:09:05;;;;;;;13.75;11.63;;;;;;;;;;5048593;28;20452;-77
2022/09/29 09:11:40;;;;;;;12.35;11.13;;;;;;;;;;4993968;28;20383;-78
2022/09/29 09:14:06;;;;;;;12.27;10.50;;;;;;;;;;5047737;28;20033;-77
2022/09/29 09:16:42;;;;;;;13.80;11.05;;;;;;;;;;5046583;28;20135;-78
2022/09/29 09:19:18;;;;;;;14.30;12.35;;;;;;;;;;5046746;28;20069;-77
2022/09/29 09:21:46;;;;;;;13.95;10.93;;;;;;;;;;5045760;28;20127;-76
2022/09/29 09:24:16;;;;;;;15.85;10.95;;;;;;;;;;5029300;28;20033;-77
2022/09/29 09:26:43;;;;;;;13.30;10.50;;;;;;;;;;5048282;28;20055;-77
2022/09/29 09:29:28;;;;;;;13.55;11.80;;;;;;;;;;5048147;28;20370;-78
2022/09/29 09:31:56;;;;;;;12.98;10.63;;;;;;;;;;5038963;28;20060;-74
2022/09/29 09:34:22;;;;;;;11.88;10.07;;;;;;;;;;5046898;28;20125;-74
2022/09/29 09:37:02;;;;;;;10.73;9.63;;;;;;;;;;5037225;28;20049;-74
2022/09/29 09:39:51;;;;;;;10.80;9.70;;;;;;;;;;5019846;28;20410;-75
2022/09/29 09:42:19;;;;;;;12.00;10.90;;;;;;;;;;5046686;28;20061;-74
2022/09/29 09:44:49;;;;;;;11.95;9.63;;;;;;;;;;5046682;28;20044;-74
2022/09/29 09:47:33;;;;;;;12.70;11.18;;;;;;;;;;5045821;28;20037;-74
2022/09/29 09:50:00;;;;;;;16.02;12.13;;;;;;;;;;5046789;28;20063;-74
2022/09/29 09:52:28;;;;;;;14.48;11.38;;;;;;;;;;5029254;28;20067;-74
2022/09/29 09:54:58;;;;;;;15.82;11.05;;;;;;;;;;5046564;28;20045;-77
2022/09/29 09:57:30;;;;;;;19.88;11.88;;;;;;;;;;5047049;28;20056;-76
2022/09/29 10:00:03;;;;;;;13.18;11.80;;;;;;;;;;5028797;28;20051;-77
2022/09/29 10:02:42;;;;;;;15.90;11.98;;;;;;;;;;5045289;28;20107;-76
2022/09/29 10:05:12;;;;;;;14.52;13.00;;;;;;;;;;5044865;28;20057;-77
2022/09/29 10:07:38;;;;;;;15.98;12.43;;;;;;;;;;5049602;28;20053;-77
2022/09/29 10:10:05;;;;;;;15.90;12.75;;;;;;;;;;5049939;28;20512;-75
2022/09/29 10:12:30;;;;;;;13.48;12.07;;;;;;;;;;5049194;28;20045;-75
2022/09/29 10:14:58;;;;;;;14.82;11.98;;;;;;;;;;5050128;28;20067;-76
2022/09/29 10:17:25;;;;;;;13.27;11.93;;;;;;;;;;5047727;28;20064;-75
2022/09/29 10:19:55;;;;;;;15.15;13.10;;;;;;;;;;5048607;28;20416;-76
2022/09/29 10:22:21;;;;;;;14.98;12.85;;;;;;;;;;5050745;28;20045;-77
2022/09/29 10:24:47;;;;;;;15.80;12.15;;;;;;;;;;5045116;28;20120;-75
2022/09/29 10:27:20;;;;;;;12.85;11.32;;;;;;;;;;5028234;28;20056;-76
2022/09/29 10:29:49;;;;;;;14.05;11.15;;;;;;;;;;5040707;28;20043;-75
2022/09/29 10:32:16;;;;;;;12.07;10.93;;;;;;;;;;5050066;28;20041;-76
2022/09/29 10:34:43;;;;;;;17.27;10.77;;;;;;;;;;5048800;28;20079;-75
2022/09/29 10:37:28;;;;;;;12.77;11.38;;;;;;;;;;5048126;28;20040;-77
2022/09/29 10:40:01;;;;;;;12.65;10.50;;;;;;;;;;5049809;28;20051;-77
2022/09/29 10:42:28;;;;;;;11.55;10.38;;;;;;;;;;5050282;28;20290;-79
2022/09/29 10:45:01;;;;;;;13.02;10.88;;;;;;;;;;5049670;28;20304;-75
2022/09/29 10:47:28;;;;;;;13.50;10.07;;;;;;;;;;5050242;28;20040;-74
2022/09/29 10:50:13;;;;;;;11.63;10.38;;;;;;;;;;5050224;28;20033;-75
2022/09/29 10:52:42;;;;;;;11.80;10.57;;;;;;;;;;5051178;28;20044;-76
2022/09/29 10:55:17;;;;;;;13.13;10.65;;;;;;;;;;5059073;28;20060;-75
2022/09/29 10:57:43;;;;;;;13.52;11.30;;;;;;;;;;5056827;28;20033;-75
2022/09/29 11:00:22;;;;;;;11.43;10.10;;;;;;;;;;5053932;28;20127;-76
2022/09/29 11:02:48;;;;;;;13.00;11.43;;;;;;;;;;5049724;28;20055;-75
2022/09/29 11:05:19;;;;;;;13.27;10.02;;;;;;;;;;5049581;28;20041;-76
2022/09/29 11:07:45;;;;;;;12.82;10.68;;;;;;;;;;5047921;28;20497;-75
2022/09/29 11:10:32;;;;;;;12.27;11.07;;;;;;;;;;5048184;28;20071;-76
2022/09/29 11:12:59;;;;;;;11.65;10.52;;;;;;;;;;5049340;28;20528;-75
2022/09/29 11:15:27;;;;;;;12.88;11.63;;;;;;;;;;5048876;28;20045;-76
2022/09/29 11:17:53;;;;;;;13.90;10.95;;;;;;;;;;5047468;28;20045;-76
2022/09/29 11:20:19;;;;;;;16.92;11.27;;;;;;;;;;5049593;28;20037;-77
2022/09/29 11:22:49;;;;;;;14.38;11.50;;;;;;;;;;5047609;28;20421;-76
2022/09/29 11:25:18;;;;;;;13.13;10.88;;;;;;;;;;5041350;28;20041;-76
2022/09/29 11:27:45;;;;;;;13.00;11.40;;;;;;;;;;5029252;28;20103;-75
2022/09/29 11:30:11;;;;;;;15.70;11.48;;;;;;;;;;5028798;28;20512;-75
2022/09/29 11:32:38;;;;;;;11.45;10.35;;;;;;;;;;5020736;28;20207;-76
2022/09/29 11:35:15;;;;;;;15.05;10.98;;;;;;;;;;5063862;28;20033;-75
2022/09/29 11:37:43;;;;;;;10.25;9.18;;;;;;;;;;5048113;28;20182;-74
2022/09/29 11:40:21;;;;;;;11.30;9.98;;;;;;;;;;5048473;28;20037;-75
2022/09/29 11:43:06;;;;;;;14.73;10.05;;;;;;;;;;5047345;28;20060;-74
2022/09/29 11:45:38;;;;;;;10.68;8.85;;;;;;;;;;5048747;28;20033;-76
2022/09/29 11:48:25;;;;;;;10.68;9.75;;;;;;;;;;5031272;28;20052;-75
2022/09/29 11:50:57;;;;;;;10.77;9.73;;;;;;;;;;5049164;28;20127;-77
2022/09/29 11:53:41;;;;;;;10.55;9.40;;;;;;;;;;5050117;28;20571;-75
2022/09/29 11:56:10;;;;;;;11.48;9.32;;;;;;;;;;5044573;28;20152;-76
2022/09/29 11:58:57;;;;;;;9.85;8.73;;;;;;;;;;5045318;28;20318;-74
2022/09/29 12:01:34;;;;;;;11.90;9.00;;;;;;;;;;5045436;28;20110;-75
2022/09/29 12:04:02;;;;;;;10.85;9.77;;;;;;;;;;5046485;28;20107;-75
2022/09/29 12:06:30;;;;;;;11.32;9.52;;;;;;;;;;5047405;28;20621;-74
2022/09/29 12:09:14;;;;;;;9.18;8.27;;;;;;;;;;5027572;28;20041;-75
2022/09/29 12:11:56;;;;;;;8.82;8.02;;;;;;;;;;5007146;28;20125;-74
2022/09/29 12:14:46;;;;;;;9.30;8.35;;;;;;;;;;5008392;28;20288;-75
2022/09/29 12:17:13;;;;;;;9.60;8.68;;;;;;;;;;4974585;28;20124;-74
2022/09/29 12:19:39;;;;;;;8.35;7.65;;;;;;;;;;4990583;28;20528;-74
2022/09/29 12:22:09;;;;;;;8.75;7.95;;;;;;;;;;4989959;28;20485;-74
2022/09/29 12:24:36;;;;;;;8.98;8.18;;;;;;;;;;5008925;28;20037;-75
2022/09/29 12:27:22;;;;;;;9.05;7.43;;;;;;;;;;5010076;28;20050;-76
2022/09/29 12:29:52;;;;;;;9.40;8.05;;;;;;;;;;5027363;28;20095;-74
2022/09/29 12:32:22;;;;;;;8.35;7.65;;;;;;;;;;5026900;28;20041;-74
2022/09/29 12:34:49;;;;;;;8.80;7.35;;;;;;;;;;5027377;28;20098;-74
2022/09/29 12:37:41;;;;;;;6.90;6.30;;;;;;;;;;5009677;28;20036;-74
2022/09/29 12:40:32;;;;;;;7.35;6.80;;;;;;;;;;5024537;28;20091;-75
2022/09/29 12:42:58;;;;;;;9.85;6.53;;;;;;;;;;5027724;28;20049;-75
2022/09/29 12:45:24;;;;;;;10.07;7.70;;;;;;;;;;5026185;28;20132;-75
2022/09/29 12:47:58;;;;;;;7.53;6.90;;;;;;;;;;5027377;28;20124;-75
2022/09/29 12:50:29;;;;;;;10.02;8.05;;;;;;;;;;5009869;28;20053;-74
2022/09/29 12:53:10;;;;;;;10.73;7.97;;;;;;;;;;5009232;28;20092;-74
2022/09/29 12:55:36;;;;;;;8.68;7.88;;;;;;;;;;5027359;28;20525;-75
2022/09/29 12:58:04;;;;;;;7.07;6.43;;;;;;;;;;5026324;28;20048;-75
2022/09/29 13:00:31;;;;;;;7.97;7.20;;;;;;;;;;4992110;28;20037;-76
2022/09/29 13:03:06;;;;;;;8.13;7.35;;;;;;;;;;4992121;28;20079;-77
2022/09/29 13:05:46;;;;;;;7.47;6.65;;;;;;;;;;5027361;28;20041;-75
2022/09/29 13:08:23;;;;;;;7.97;7.22;;;;;;;;;;5042700;28;20064;-73
2022/09/29 13:11:00;;;;;;;7.70;7.10;;;;;;;;;;5045350;28;20064;-76
2022/09/29 13:13:45;;;;;;;8.93;7.65;;;;;;;;;;5029735;28;20095;-75
2022/09/29 13:16:11;;;;;;;8.38;7.22;;;;;;;;;;5029104;28;20103;-75
2022/09/29 13:18:40;;;;;;;10.80;8.38;;;;;;;;;;5047272;28;20040;-75
2022/09/29 13:21:21;;;;;;;7.70;7.00;;;;;;;;;;5046920;28;20088;-74
2022/09/29 13:23:51;;;;;;;7.50;6.80;;;;;;;;;;5045944;28;20040;-74
2022/09/29 13:26:25;;;;;;;8.80;6.30;;;;;;;;;;5029694;28;20421;-75
2022/09/29 13:28:53;;;;;;;8.20;7.10;;;;;;;;;;5036512;28;20029;-75
2022/09/29 13:31:24;;;;;;;9.15;7.97;;;;;;;;;;5047104;28;20076;-74
2022/09/29 13:33:50;;;;;;;8.02;6.90;;;;;;;;;;5045021;28;20025;-75
2022/09/29 13:36:44;;;;;;;8.15;7.45;;;;;;;;;;5045644;28;20186;-74
2022/09/29 13:39:22;;;;;;;7.55;6.88;;;;;;;;;;5045167;28;20040;-74
2022/09/29 13:41:48;;;;;;;8.77;7.88;;;;;;;;;;5048150;28;20481;-74
2022/09/29 13:44:17;;;;;;;9.57;7.38;;;;;;;;;;5050128;28;20468;-74
2022/09/29 13:46:43;;;;;;;10.50;6.93;;;;;;;;;;5052798;28;20608;-74
2022/09/29 13:49:12;;;;;;;8.85;7.95;;;;;;;;;;5050222;28;20588;-75
2022/09/29 13:51:42;;;;;;;12.85;8.13;;;;;;;;;;5049676;28;20535;-75
2022/09/29 13:54:27;;;;;;;8.88;8.05;;;;;;;;;;5050683;28;20169;-74
2022/09/29 13:56:59;;;;;;;9.35;8.18;;;;;;;;;;5050580;28;20051;-75
2022/09/29 13:59:25;;;;;;;10.23;7.70;;;;;;;;;;5066494;28;20045;-75
2022/09/29 14:01:51;;;;;;;12.50;8.13;;;;;;;;;;5065555;28;20052;-77
2022/09/29 14:04:36;;;;;;;11.25;8.10;;;;;;;;;;5053972;28;20032;-75
2022/09/29 14:07:03;;;;;;;9.75;8.95;;;;;;;;;;5063348;28;20492;-75
2022/09/29 14:09:32;;;;;;;9.18;8.38;;;;;;;;;;5050040;28;20140;-74
2022/09/29 14:12:01;;;;;;;7.20;5.93;;;;;;;;;;5017420;28;20092;-74
2022/09/29 14:14:53;;;;;;;10.23;9.15;;;;;;;;;;5053737;28;20051;-75
2022/09/29 14:17:37;;;;;;;10.07;9.18;;;;;;;;;;5060464;28;20033;-75
2022/09/29 14:20:07;;;;;;;9.48;8.68;;;;;;;;;;5057408;28;20072;-74
2022/09/29 14:22:37;;;;;;;10.67;9.03;;;;;;;;;;5049476;28;20049;-74
2022/09/29 14:25:07;;;;;;;9.60;8.70;;;;;;;;;;5043994;28;20096;-74
2022/09/29 14:27:39;;;;;;;9.38;8.25;;;;;;;;;;5030573;28;20497;-75
2022/09/29 14:30:08;;;;;;;11.60;8.73;;;;;;;;;;5042991;28;20053;-74
2022/09/29 14:32:41;;;;;;;8.52;7.72;;;;;;;;;;5049713;28;20041;-75
2022/09/29 14:35:18;;;;;;;10.80;8.40;;;;;;;;;;5046624;28;20079;-74
2022/09/29 14:37:45;;;;;;;11.15;8.35;;;;;;;;;;5030124;28;20053;-75
2022/09/29 14:40:29;;;;;;;10.02;8.18;;;;;;;;;;5078045;28;20040;-76
2022/09/29 14:43:21;;;;;;;9.32;8.32;;;;;;;;;;5028908;28;20513;-76
2022/09/29 14:51:58;;;;;;;10.68;9.00;;;;;;;;;;5060362;28;20102;-76
2022/09/29 14:54:36;;;;;;;12.93;10.45;;;;;;;;;;5084441;28;20060;-76
2022/09/29 14:57:07;;;;;;;11.23;10.15;;;;;;;;;;5069374;28;20067;-75